sensor_id;sensor_type;location;lat;lon;timestamp;P1;durP1;ratioP1;P2;durP2;ratioP2
26530;SDS011;14201;43.188;24.160;2023-04-06T00:00:32;10.00;;;8.85;;
26530;SDS011;14201;43.188;24.160;2023-04-06T00:02:58;11.45;;;9.82;;
26530;SDS011;14201;43.188;24.160;2023-04-06T00:05:24;10.40;;;8.65;;
26530;SDS011;14201;43.188;24.160;2023-04-06T00:07:49;10.18;;;8.82;;
26530;SDS011;14201;43.188;24.160;2023-04-06T00:10:16;11.18;;;9.82;;
26530;SDS011;14201;43.188;24.160;2023-04-06T00:12:42;11.50;;;9.05;;
26530;SDS011;14201;43.188;24.160;2023-04-06T00:15:08;11.07;;;8.93;;
26530;SDS011;14201;43.188;24.160;2023-04-06T00:17:34;11.50;;;9.77;;
26530;SDS011;14201;43.188;24.160;2023-04-06T00:20:00;13.27;;;9.85;;
26530;SDS011;14201;43.188;24.160;2023-04-06T00:22:26;10.23;;;8.75;;
26530;SDS011;14201;43.188;24.160;2023-04-06T00:24:52;9.93;;;8.85;;
26530;SDS011;14201;43.188;24.160;2023-04-06T00:27:17;10.60;;;9.00;;
26530;SDS011;14201;43.188;24.160;2023-04-06T00:29:43;10.68;;;8.75;;
26530;SDS011;14201;43.188;24.160;2023-04-06T00:32:09;9.43;;;8.20;;
26530;SDS011;14201;43.188;24.160;2023-04-06T00:34:35;10.55;;;8.70;;
26530;SDS011;14201;43.188;24.160;2023-04-06T00:37:00;9.32;;;8.32;;
26530;SDS011;14201;43.188;24.160;2023-04-06T00:39:26;9.02;;;8.13;;
26530;SDS011;14201;43.188;24.160;2023-04-06T00:41:52;10.38;;;7.93;;
26530;SDS011;14201;43.188;24.160;2023-04-06T00:44:19;8.57;;;7.68;;
26530;SDS011;14201;43.188;24.160;2023-04-06T00:46:45;9.27;;;7.88;;
26530;SDS011;14201;43.188;24.160;2023-04-06T00:49:11;10.90;;;7.60;;
26530;SDS011;14201;43.188;24.160;2023-04-06T00:51:36;8.90;;;8.00;;
26530;SDS011;14201;43.188;24.160;2023-04-06T00:54:02;8.45;;;7.47;;
26530;SDS011;14201;43.188;24.160;2023-04-06T00:56:28;8.77;;;7.57;;
26530;SDS011;14201;43.188;24.160;2023-04-06T00:58:53;9.93;;;8.38;;
26530;SDS011;14201;43.188;24.160;2023-04-06T01:01:19;8.73;;;7.43;;
26530;SDS011;14201;43.188;24.160;2023-04-06T01:03:45;9.05;;;7.97;;
26530;SDS011;14201;43.188;24.160;2023-04-06T01:06:14;9.75;;;8.35;;
26530;SDS011;14201;43.188;24.160;2023-04-06T01:08:40;9.52;;;7.60;;
26530;SDS011;14201;43.188;24.160;2023-04-06T01:11:05;8.77;;;7.80;;
26530;SDS011;14201;43.188;24.160;2023-04-06T01:13:31;9.88;;;7.78;;
26530;SDS011;14201;43.188;24.160;2023-04-06T01:15:57;8.90;;;7.90;;
26530;SDS011;14201;43.188;24.160;2023-04-06T01:18:26;8.23;;;7.30;;
26530;SDS011;14201;43.188;24.160;2023-04-06T01:20:53;6.25;;;5.40;;
26530;SDS011;14201;43.188;24.160;2023-04-06T01:23:18;10.75;;;7.70;;
26530;SDS011;14201;43.188;24.160;2023-04-06T01:25:44;8.82;;;7.90;;
26530;SDS011;14201;43.188;24.160;2023-04-06T01:28:10;8.70;;;7.43;;
26530;SDS011;14201;43.188;24.160;2023-04-06T01:30:36;10.48;;;8.30;;
26530;SDS011;14201;43.188;24.160;2023-04-06T01:33:01;10.43;;;8.05;;
26530;SDS011;14201;43.188;24.160;2023-04-06T01:35:27;9.40;;;7.50;;
26530;SDS011;14201;43.188;24.160;2023-04-06T01:37:54;9.00;;;7.78;;
26530;SDS011;14201;43.188;24.160;2023-04-06T01:40:20;9.95;;;7.30;;
26530;SDS011;14201;43.188;24.160;2023-04-06T01:42:45;8.43;;;7.03;;
26530;SDS011;14201;43.188;24.160;2023-04-06T01:45:11;8.52;;;7.05;;
26530;SDS011;14201;43.188;24.160;2023-04-06T01:47:37;8.77;;;7.28;;
26530;SDS011;14201;43.188;24.160;2023-04-06T01:50:02;9.05;;;7.57;;
26530;SDS011;14201;43.188;24.160;2023-04-06T01:52:31;9.23;;;7.88;;
26530;SDS011;14201;43.188;24.160;2023-04-06T01:54:57;9.52;;;7.90;;
26530;SDS011;14201;43.188;24.160;2023-04-06T01:57:23;8.57;;;7.50;;
26530;SDS011;14201;43.188;24.160;2023-04-06T01:59:50;9.30;;;7.53;;
26530;SDS011;14201;43.188;24.160;2023-04-06T02:02:16;9.15;;;7.97;;
26530;SDS011;14201;43.188;24.160;2023-04-06T02:04:42;9.95;;;8.30;;
26530;SDS011;14201;43.188;24.160;2023-04-06T02:07:08;8.68;;;7.18;;
26530;SDS011;14201;43.188;24.160;2023-04-06T02:09:34;8.27;;;7.38;;
26530;SDS011;14201;43.188;24.160;2023-04-06T02:12:00;10.13;;;8.38;;
26530;SDS011;14201;43.188;24.160;2023-04-06T02:14:26;10.07;;;7.82;;
26530;SDS011;14201;43.188;24.160;2023-04-06T02:16:52;9.80;;;7.65;;
26530;SDS011;14201;43.188;24.160;2023-04-06T02:19:18;9.27;;;7.63;;
26530;SDS011;14201;43.188;24.160;2023-04-06T02:21:43;9.00;;;7.90;;
26530;SDS011;14201;43.188;24.160;2023-04-06T02:24:09;9.35;;;7.50;;
26530;SDS011;14201;43.188;24.160;2023-04-06T02:26:35;8.73;;;7.50;;
26530;SDS011;14201;43.188;24.160;2023-04-06T02:29:01;9.13;;;7.75;;
26530;SDS011;14201;43.188;24.160;2023-04-06T02:31:27;8.88;;;7.53;;
26530;SDS011;14201;43.188;24.160;2023-04-06T02:33:53;9.27;;;7.68;;
26530;SDS011;14201;43.188;24.160;2023-04-06T02:36:19;9.80;;;8.23;;
26530;SDS011;14201;43.188;24.160;2023-04-06T02:38:44;11.73;;;8.50;;
26530;SDS011;14201;43.188;24.160;2023-04-06T02:41:13;10.43;;;7.97;;
26530;SDS011;14201;43.188;24.160;2023-04-06T02:43:39;10.10;;;8.30;;
26530;SDS011;14201;43.188;24.160;2023-04-06T02:46:04;10.73;;;9.20;;
26530;SDS011;14201;43.188;24.160;2023-04-06T02:48:30;11.00;;;8.73;;
26530;SDS011;14201;43.188;24.160;2023-04-06T02:50:56;9.43;;;8.07;;
26530;SDS011;14201;43.188;24.160;2023-04-06T02:53:21;11.68;;;8.07;;
26530;SDS011;14201;43.188;24.160;2023-04-06T02:55:47;9.15;;;8.13;;
26530;SDS011;14201;43.188;24.160;2023-04-06T02:58:12;9.50;;;7.47;;
26530;SDS011;14201;43.188;24.160;2023-04-06T03:00:38;10.75;;;8.80;;
26530;SDS011;14201;43.188;24.160;2023-04-06T03:03:03;10.20;;;8.48;;
26530;SDS011;14201;43.188;24.160;2023-04-06T03:05:29;9.82;;;7.85;;
26530;SDS011;14201;43.188;24.160;2023-04-06T03:07:55;9.48;;;7.80;;
26530;SDS011;14201;43.188;24.160;2023-04-06T03:10:21;10.35;;;8.32;;
26530;SDS011;14201;43.188;24.160;2023-04-06T03:12:46;9.75;;;8.25;;
26530;SDS011;14201;43.188;24.160;2023-04-06T03:15:12;10.45;;;8.68;;
26530;SDS011;14201;43.188;24.160;2023-04-06T03:17:38;9.13;;;8.15;;
26530;SDS011;14201;43.188;24.160;2023-04-06T03:20:04;10.20;;;8.73;;
26530;SDS011;14201;43.188;24.160;2023-04-06T03:22:30;11.50;;;8.80;;
26530;SDS011;14201;43.188;24.160;2023-04-06T03:24:55;10.95;;;9.18;;
26530;SDS011;14201;43.188;24.160;2023-04-06T03:27:21;10.63;;;8.65;;
26530;SDS011;14201;43.188;24.160;2023-04-06T03:29:46;11.48;;;8.68;;
26530;SDS011;14201;43.188;24.160;2023-04-06T03:32:12;9.77;;;8.30;;
26530;SDS011;14201;43.188;24.160;2023-04-06T03:34:38;11.20;;;8.88;;
26530;SDS011;14201;43.188;24.160;2023-04-06T03:37:04;11.52;;;9.10;;
26530;SDS011;14201;43.188;24.160;2023-04-06T03:39:30;10.75;;;8.80;;
26530;SDS011;14201;43.188;24.160;2023-04-06T03:41:55;13.45;;;8.85;;
26530;SDS011;14201;43.188;24.160;2023-04-06T03:44:21;11.48;;;9.60;;
26530;SDS011;14201;43.188;24.160;2023-04-06T03:46:47;11.65;;;9.38;;
26530;SDS011;14201;43.188;24.160;2023-04-06T03:49:12;12.63;;;10.00;;
26530;SDS011;14201;43.188;24.160;2023-04-06T03:51:38;13.13;;;9.82;;
26530;SDS011;14201;43.188;24.160;2023-04-06T03:54:04;14.48;;;9.50;;
26530;SDS011;14201;43.188;24.160;2023-04-06T03:56:29;10.30;;;9.20;;
26530;SDS011;14201;43.188;24.160;2023-04-06T03:58:55;13.52;;;9.52;;
26530;SDS011;14201;43.188;24.160;2023-04-06T04:01:21;12.68;;;9.73;;
26530;SDS011;14201;43.188;24.160;2023-04-06T04:03:46;11.63;;;9.15;;
26530;SDS011;14201;43.188;24.160;2023-04-06T04:06:12;11.82;;;9.73;;
26530;SDS011;14201;43.188;24.160;2023-04-06T04:08:38;11.75;;;9.52;;
26530;SDS011;14201;43.188;24.160;2023-04-06T04:11:03;13.38;;;11.18;;
26530;SDS011;14201;43.188;24.160;2023-04-06T04:13:29;14.45;;;10.20;;
26530;SDS011;14201;43.188;24.160;2023-04-06T04:15:55;11.93;;;10.15;;
26530;SDS011;14201;43.188;24.160;2023-04-06T04:18:21;12.77;;;10.13;;
26530;SDS011;14201;43.188;24.160;2023-04-06T04:20:46;11.35;;;9.75;;
26530;SDS011;14201;43.188;24.160;2023-04-06T04:23:12;12.55;;;9.80;;
26530;SDS011;14201;43.188;24.160;2023-04-06T04:25:38;13.25;;;10.50;;
26530;SDS011;14201;43.188;24.160;2023-04-06T04:28:03;13.30;;;10.27;;
26530;SDS011;14201;43.188;24.160;2023-04-06T04:30:29;12.77;;;10.25;;
26530;SDS011;14201;43.188;24.160;2023-04-06T04:32:55;12.50;;;10.43;;
26530;SDS011;14201;43.188;24.160;2023-04-06T04:35:21;12.60;;;10.23;;
26530;SDS011;14201;43.188;24.160;2023-04-06T04:37:46;12.98;;;10.13;;
26530;SDS011;14201;43.188;24.160;2023-04-06T04:40:12;12.55;;;9.65;;
26530;SDS011;14201;43.188;24.160;2023-04-06T04:42:37;12.55;;;9.55;;
26530;SDS011;14201;43.188;24.160;2023-04-06T04:45:03;12.52;;;9.65;;
26530;SDS011;14201;43.188;24.160;2023-04-06T04:47:29;10.88;;;9.18;;
26530;SDS011;14201;43.188;24.160;2023-04-06T04:49:55;13.32;;;9.18;;
26530;SDS011;14201;43.188;24.160;2023-04-06T04:52:20;13.20;;;10.13;;
26530;SDS011;14201;43.188;24.160;2023-04-06T04:54:46;14.95;;;11.20;;
26530;SDS011;14201;43.188;24.160;2023-04-06T04:57:12;13.98;;;10.65;;
26530;SDS011;14201;43.188;24.160;2023-04-06T04:59:37;14.98;;;10.82;;
26530;SDS011;14201;43.188;24.160;2023-04-06T05:02:03;14.30;;;10.20;;
26530;SDS011;14201;43.188;24.160;2023-04-06T05:04:29;12.07;;;9.98;;
26530;SDS011;14201;43.188;24.160;2023-04-06T05:07:04;12.48;;;9.80;;
26530;SDS011;14201;43.188;24.160;2023-04-06T05:09:31;13.95;;;10.38;;
26530;SDS011;14201;43.188;24.160;2023-04-06T05:11:57;13.57;;;10.50;;
26530;SDS011;14201;43.188;24.160;2023-04-06T05:14:24;14.32;;;10.75;;
26530;SDS011;14201;43.188;24.160;2023-04-06T05:16:50;13.85;;;10.80;;
26530;SDS011;14201;43.188;24.160;2023-04-06T05:19:15;12.65;;;9.93;;
26530;SDS011;14201;43.188;24.160;2023-04-06T05:21:41;13.55;;;9.80;;
26530;SDS011;14201;43.188;24.160;2023-04-06T05:24:06;13.90;;;10.68;;
26530;SDS011;14201;43.188;24.160;2023-04-06T05:26:33;14.45;;;9.88;;
26530;SDS011;14201;43.188;24.160;2023-04-06T05:28:59;13.52;;;10.07;;
26530;SDS011;14201;43.188;24.160;2023-04-06T05:31:26;11.40;;;9.50;;
26530;SDS011;14201;43.188;24.160;2023-04-06T05:33:51;11.73;;;9.35;;
26530;SDS011;14201;43.188;24.160;2023-04-06T05:36:17;14.23;;;9.82;;
26530;SDS011;14201;43.188;24.160;2023-04-06T05:38:43;11.73;;;9.38;;
26530;SDS011;14201;43.188;24.160;2023-04-06T05:41:08;11.23;;;8.85;;
26530;SDS011;14201;43.188;24.160;2023-04-06T05:43:34;11.80;;;9.60;;
26530;SDS011;14201;43.188;24.160;2023-04-06T05:46:00;11.95;;;9.38;;
26530;SDS011;14201;43.188;24.160;2023-04-06T05:48:26;11.15;;;9.30;;
26530;SDS011;14201;43.188;24.160;2023-04-06T05:50:51;14.93;;;9.48;;
26530;SDS011;14201;43.188;24.160;2023-04-06T05:53:17;12.20;;;9.60;;
26530;SDS011;14201;43.188;24.160;2023-04-06T05:55:42;11.60;;;9.43;;
26530;SDS011;14201;43.188;24.160;2023-04-06T05:58:08;12.05;;;8.95;;
26530;SDS011;14201;43.188;24.160;2023-04-06T06:00:34;13.10;;;8.60;;
26530;SDS011;14201;43.188;24.160;2023-04-06T06:03:00;8.75;;;6.78;;
26530;SDS011;14201;43.188;24.160;2023-04-06T06:05:29;9.43;;;7.45;;
26530;SDS011;14201;43.188;24.160;2023-04-06T06:07:54;9.35;;;6.78;;
26530;SDS011;14201;43.188;24.160;2023-04-06T06:10:20;9.73;;;6.93;;
26530;SDS011;14201;43.188;24.160;2023-04-06T06:12:46;11.23;;;7.00;;
26530;SDS011;14201;43.188;24.160;2023-04-06T06:15:12;9.20;;;6.75;;
26530;SDS011;14201;43.188;24.160;2023-04-06T06:17:37;7.97;;;6.68;;
26530;SDS011;14201;43.188;24.160;2023-04-06T06:20:05;7.82;;;6.20;;
26530;SDS011;14201;43.188;24.160;2023-04-06T06:22:32;9.68;;;7.32;;
26530;SDS011;14201;43.188;24.160;2023-04-06T06:24:58;9.00;;;7.05;;
26530;SDS011;14201;43.188;24.160;2023-04-06T06:27:23;9.38;;;7.15;;
26530;SDS011;14201;43.188;24.160;2023-04-06T06:29:49;10.18;;;6.93;;
26530;SDS011;14201;43.188;24.160;2023-04-06T06:32:15;9.85;;;6.75;;
26530;SDS011;14201;43.188;24.160;2023-04-06T06:34:40;8.40;;;6.60;;
26530;SDS011;14201;43.188;24.160;2023-04-06T06:37:06;9.18;;;6.38;;
26530;SDS011;14201;43.188;24.160;2023-04-06T06:39:32;8.55;;;6.70;;
26530;SDS011;14201;43.188;24.160;2023-04-06T06:41:57;9.85;;;6.43;;
26530;SDS011;14201;43.188;24.160;2023-04-06T06:44:25;8.30;;;6.32;;
26530;SDS011;14201;43.188;24.160;2023-04-06T06:46:51;7.88;;;6.18;;
26530;SDS011;14201;43.188;24.160;2023-04-06T06:49:17;7.93;;;6.32;;
26530;SDS011;14201;43.188;24.160;2023-04-06T06:51:43;8.40;;;6.53;;
26530;SDS011;14201;43.188;24.160;2023-04-06T06:54:09;8.35;;;5.93;;
26530;SDS011;14201;43.188;24.160;2023-04-06T06:56:35;8.07;;;6.18;;
26530;SDS011;14201;43.188;24.160;2023-04-06T06:59:03;8.60;;;6.70;;
26530;SDS011;14201;43.188;24.160;2023-04-06T07:01:30;10.63;;;6.72;;
26530;SDS011;14201;43.188;24.160;2023-04-06T07:03:57;9.10;;;6.35;;
26530;SDS011;14201;43.188;24.160;2023-04-06T07:06:23;9.15;;;6.25;;
26530;SDS011;14201;43.188;24.160;2023-04-06T07:08:48;7.80;;;6.22;;
26530;SDS011;14201;43.188;24.160;2023-04-06T07:11:14;10.13;;;6.32;;
26530;SDS011;14201;43.188;24.160;2023-04-06T07:13:40;8.93;;;5.97;;
26530;SDS011;14201;43.188;24.160;2023-04-06T07:16:05;11.00;;;6.68;;
26530;SDS011;14201;43.188;24.160;2023-04-06T07:18:31;9.77;;;6.18;;
26530;SDS011;14201;43.188;24.160;2023-04-06T07:20:57;11.13;;;6.30;;
26530;SDS011;14201;43.188;24.160;2023-04-06T07:23:22;7.43;;;5.35;;
26530;SDS011;14201;43.188;24.160;2023-04-06T07:25:48;9.65;;;6.20;;
26530;SDS011;14201;43.188;24.160;2023-04-06T07:28:16;8.35;;;5.43;;
26530;SDS011;14201;43.188;24.160;2023-04-06T07:30:41;11.15;;;5.00;;
26530;SDS011;14201;43.188;24.160;2023-04-06T07:33:07;6.35;;;4.65;;
26530;SDS011;14201;43.188;24.160;2023-04-06T07:35:32;7.50;;;4.85;;
26530;SDS011;14201;43.188;24.160;2023-04-06T07:37:59;7.85;;;5.18;;
26530;SDS011;14201;43.188;24.160;2023-04-06T07:40:25;6.68;;;4.68;;
26530;SDS011;14201;43.188;24.160;2023-04-06T07:42:52;8.82;;;5.20;;
26530;SDS011;14201;43.188;24.160;2023-04-06T07:45:18;7.95;;;4.70;;
26530;SDS011;14201;43.188;24.160;2023-04-06T07:47:43;8.10;;;5.32;;
26530;SDS011;14201;43.188;24.160;2023-04-06T07:50:10;7.90;;;5.15;;
26530;SDS011;14201;43.188;24.160;2023-04-06T07:52:36;8.95;;;5.13;;
26530;SDS011;14201;43.188;24.160;2023-04-06T08:16:51;8.15;;;5.15;;
26530;SDS011;14201;43.188;24.160;2023-04-06T08:19:17;5.53;;;4.38;;
26530;SDS011;14201;43.188;24.160;2023-04-06T08:21:44;6.15;;;4.25;;
26530;SDS011;14201;43.188;24.160;2023-04-06T08:24:11;6.85;;;4.50;;
26530;SDS011;14201;43.188;24.160;2023-04-06T08:26:37;9.25;;;4.90;;
26530;SDS011;14201;43.188;24.160;2023-04-06T08:29:03;12.32;;;4.40;;
26530;SDS011;14201;43.188;24.160;2023-04-06T08:31:29;4.93;;;3.58;;
26530;SDS011;14201;43.188;24.160;2023-04-06T08:33:55;4.93;;;4.00;;
26530;SDS011;14201;43.188;24.160;2023-04-06T08:38:48;6.20;;;4.35;;
26530;SDS011;14201;43.188;24.160;2023-04-06T08:41:14;4.53;;;3.60;;
26530;SDS011;14201;43.188;24.160;2023-04-06T09:25:21;4.97;;;3.75;;
26530;SDS011;14201;43.188;24.160;2023-04-06T09:42:28;4.80;;;2.90;;
26530;SDS011;14201;43.188;24.160;2023-04-06T09:44:54;4.38;;;3.25;;
26530;SDS011;14201;43.188;24.160;2023-04-06T09:47:20;4.43;;;3.03;;
26530;SDS011;14201;43.188;24.160;2023-04-06T09:49:48;5.45;;;3.10;;
26530;SDS011;14201;43.188;24.160;2023-04-06T09:52:19;3.93;;;2.90;;
26530;SDS011;14201;43.188;24.160;2023-04-06T09:54:47;5.13;;;3.25;;
26530;SDS011;14201;43.188;24.160;2023-04-06T09:59:50;6.38;;;3.42;;
26530;SDS011;14201;43.188;24.160;2023-04-06T11:39:30;4.80;;;2.90;;
26530;SDS011;14201;43.188;24.160;2023-04-06T11:41:58;4.72;;;3.22;;
26530;SDS011;14201;43.188;24.160;2023-04-06T11:47:02;4.60;;;3.30;;
26530;SDS011;14201;43.188;24.160;2023-04-06T11:49:30;4.28;;;3.20;;
26530;SDS011;14201;43.188;24.160;2023-04-06T11:51:57;4.15;;;3.45;;
26530;SDS011;14201;43.188;24.160;2023-04-06T11:54:33;5.47;;;3.65;;
26530;SDS011;14201;43.188;24.160;2023-04-06T11:57:03;7.43;;;3.38;;
26530;SDS011;14201;43.188;24.160;2023-04-06T11:59:30;5.15;;;3.00;;
26530;SDS011;14201;43.188;24.160;2023-04-06T12:01:59;5.43;;;3.58;;
26530;SDS011;14201;43.188;24.160;2023-04-06T12:04:26;5.18;;;3.38;;
26530;SDS011;14201;43.188;24.160;2023-04-06T12:06:52;5.05;;;3.58;;
26530;SDS011;14201;43.188;24.160;2023-04-06T12:09:17;5.05;;;3.70;;
26530;SDS011;14201;43.188;24.160;2023-04-06T12:11:43;6.10;;;4.05;;
26530;SDS011;14201;43.188;24.160;2023-04-06T12:14:09;4.90;;;3.78;;
26530;SDS011;14201;43.188;24.160;2023-04-06T12:16:35;6.63;;;3.60;;
26530;SDS011;14201;43.188;24.160;2023-04-06T12:19:00;5.13;;;3.65;;
26530;SDS011;14201;43.188;24.160;2023-04-06T12:21:27;6.00;;;3.97;;
26530;SDS011;14201;43.188;24.160;2023-04-06T12:23:53;4.32;;;3.70;;
26530;SDS011;14201;43.188;24.160;2023-04-06T12:26:20;6.43;;;3.75;;
26530;SDS011;14201;43.188;24.160;2023-04-06T12:28:46;4.70;;;3.80;;
26530;SDS011;14201;43.188;24.160;2023-04-06T12:31:19;5.60;;;3.95;;
26530;SDS011;14201;43.188;24.160;2023-04-06T12:33:47;5.63;;;3.67;;
26530;SDS011;14201;43.188;24.160;2023-04-06T12:36:14;4.18;;;3.40;;
26530;SDS011;14201;43.188;24.160;2023-04-06T12:38:41;4.72;;;3.78;;
26530;SDS011;14201;43.188;24.160;2023-04-06T12:41:07;4.82;;;3.60;;
26530;SDS011;14201;43.188;24.160;2023-04-06T12:43:33;6.80;;;4.38;;
26530;SDS011;14201;43.188;24.160;2023-04-06T12:45:59;5.30;;;3.67;;
26530;SDS011;14201;43.188;24.160;2023-04-06T12:48:27;5.07;;;3.75;;
26530;SDS011;14201;43.188;24.160;2023-04-06T12:50:57;7.25;;;4.03;;
26530;SDS011;14201;43.188;24.160;2023-04-06T12:53:23;5.70;;;3.90;;
26530;SDS011;14201;43.188;24.160;2023-04-06T12:55:49;5.80;;;4.25;;
26530;SDS011;14201;43.188;24.160;2023-04-06T12:58:15;6.70;;;3.55;;
26530;SDS011;14201;43.188;24.160;2023-04-06T13:00:42;5.60;;;3.95;;
26530;SDS011;14201;43.188;24.160;2023-04-06T13:03:08;4.68;;;3.90;;
26530;SDS011;14201;43.188;24.160;2023-04-06T13:05:33;5.03;;;3.80;;
26530;SDS011;14201;43.188;24.160;2023-04-06T13:07:59;7.57;;;3.67;;
26530;SDS011;14201;43.188;24.160;2023-04-06T13:10:24;4.60;;;3.60;;
26530;SDS011;14201;43.188;24.160;2023-04-06T13:12:51;4.65;;;3.75;;
26530;SDS011;14201;43.188;24.160;2023-04-06T13:15:17;5.05;;;3.65;;
26530;SDS011;14201;43.188;24.160;2023-04-06T13:17:42;4.70;;;4.00;;
26530;SDS011;14201;43.188;24.160;2023-04-06T13:20:08;4.95;;;3.90;;
26530;SDS011;14201;43.188;24.160;2023-04-06T13:22:35;4.53;;;3.65;;
26530;SDS011;14201;43.188;24.160;2023-04-06T13:25:01;7.65;;;3.95;;
26530;SDS011;14201;43.188;24.160;2023-04-06T13:27:26;4.70;;;3.70;;
26530;SDS011;14201;43.188;24.160;2023-04-06T13:29:52;5.50;;;4.07;;
26530;SDS011;14201;43.188;24.160;2023-04-06T13:32:20;5.32;;;3.60;;
26530;SDS011;14201;43.188;24.160;2023-04-06T13:34:45;6.78;;;3.75;;
26530;SDS011;14201;43.188;24.160;2023-04-06T13:37:13;6.40;;;3.75;;
26530;SDS011;14201;43.188;24.160;2023-04-06T13:39:40;5.10;;;3.72;;
26530;SDS011;14201;43.188;24.160;2023-04-06T13:42:06;6.10;;;4.40;;
26530;SDS011;14201;43.188;24.160;2023-04-06T13:44:32;7.15;;;4.20;;
26530;SDS011;14201;43.188;24.160;2023-04-06T13:46:58;5.60;;;4.35;;
26530;SDS011;14201;43.188;24.160;2023-04-06T13:49:23;5.80;;;3.65;;
26530;SDS011;14201;43.188;24.160;2023-04-06T13:51:49;6.15;;;4.05;;
26530;SDS011;14201;43.188;24.160;2023-04-06T13:54:15;8.25;;;4.60;;
26530;SDS011;14201;43.188;24.160;2023-04-06T13:56:40;6.53;;;4.93;;
26530;SDS011;14201;43.188;24.160;2023-04-06T13:59:06;9.27;;;5.35;;
26530;SDS011;14201;43.188;24.160;2023-04-06T14:01:31;8.52;;;5.55;;
26530;SDS011;14201;43.188;24.160;2023-04-06T14:03:57;7.65;;;5.63;;
26530;SDS011;14201;43.188;24.160;2023-04-06T14:06:23;7.95;;;5.05;;
26530;SDS011;14201;43.188;24.160;2023-04-06T14:08:48;6.55;;;4.93;;
26530;SDS011;14201;43.188;24.160;2023-04-06T14:11:14;6.45;;;5.28;;
26530;SDS011;14201;43.188;24.160;2023-04-06T14:13:40;6.82;;;5.35;;
26530;SDS011;14201;43.188;24.160;2023-04-06T14:16:06;8.73;;;5.40;;
26530;SDS011;14201;43.188;24.160;2023-04-06T14:18:32;7.72;;;5.50;;
26530;SDS011;14201;43.188;24.160;2023-04-06T14:20:59;7.45;;;5.68;;
26530;SDS011;14201;43.188;24.160;2023-04-06T14:23:26;7.47;;;5.47;;
26530;SDS011;14201;43.188;24.160;2023-04-06T14:26:02;6.80;;;5.45;;
26530;SDS011;14201;43.188;24.160;2023-04-06T14:28:30;6.25;;;4.72;;
26530;SDS011;14201;43.188;24.160;2023-04-06T14:30:58;6.75;;;4.75;;
26530;SDS011;14201;43.188;24.160;2023-04-06T14:33:25;6.82;;;5.40;;
26530;SDS011;14201;43.188;24.160;2023-04-06T14:35:52;6.35;;;4.90;;
26530;SDS011;14201;43.188;24.160;2023-04-06T14:38:17;7.22;;;5.22;;
26530;SDS011;14201;43.188;24.160;2023-04-06T14:40:43;8.80;;;5.15;;
26530;SDS011;14201;43.188;24.160;2023-04-06T14:43:08;7.40;;;5.72;;
26530;SDS011;14201;43.188;24.160;2023-04-06T14:45:34;7.88;;;5.65;;
26530;SDS011;14201;43.188;24.160;2023-04-06T14:48:02;6.55;;;5.57;;
26530;SDS011;14201;43.188;24.160;2023-04-06T14:50:28;9.13;;;5.22;;
26530;SDS011;14201;43.188;24.160;2023-04-06T14:52:53;8.60;;;5.70;;
26530;SDS011;14201;43.188;24.160;2023-04-06T14:55:19;7.72;;;5.50;;
26530;SDS011;14201;43.188;24.160;2023-04-06T14:57:45;7.10;;;5.35;;
26530;SDS011;14201;43.188;24.160;2023-04-06T15:00:11;8.75;;;5.57;;
26530;SDS011;14201;43.188;24.160;2023-04-06T15:02:37;7.60;;;5.65;;
26530;SDS011;14201;43.188;24.160;2023-04-06T15:05:04;8.27;;;5.97;;
26530;SDS011;14201;43.188;24.160;2023-04-06T15:07:30;9.68;;;6.32;;
26530;SDS011;14201;43.188;24.160;2023-04-06T15:09:56;11.52;;;5.75;;
26530;SDS011;14201;43.188;24.160;2023-04-06T15:12:21;8.80;;;6.03;;
26530;SDS011;14201;43.188;24.160;2023-04-06T15:14:47;11.52;;;5.70;;
26530;SDS011;14201;43.188;24.160;2023-04-06T15:17:12;10.25;;;6.60;;
26530;SDS011;14201;43.188;24.160;2023-04-06T15:19:38;9.48;;;6.38;;
26530;SDS011;14201;43.188;24.160;2023-04-06T15:22:04;8.25;;;5.85;;
26530;SDS011;14201;43.188;24.160;2023-04-06T15:24:29;10.00;;;6.30;;
26530;SDS011;14201;43.188;24.160;2023-04-06T15:26:55;8.50;;;6.30;;
26530;SDS011;14201;43.188;24.160;2023-04-06T15:29:22;8.38;;;6.10;;
26530;SDS011;14201;43.188;24.160;2023-04-06T15:31:47;8.55;;;6.43;;
26530;SDS011;14201;43.188;24.160;2023-04-06T15:34:13;12.90;;;6.28;;
26530;SDS011;14201;43.188;24.160;2023-04-06T15:36:38;10.77;;;6.72;;
26530;SDS011;14201;43.188;24.160;2023-04-06T15:39:04;9.52;;;6.40;;
26530;SDS011;14201;43.188;24.160;2023-04-06T15:41:33;9.82;;;7.15;;
26530;SDS011;14201;43.188;24.160;2023-04-06T15:43:59;9.32;;;6.28;;
26530;SDS011;14201;43.188;24.160;2023-04-06T15:46:25;9.98;;;6.80;;
26530;SDS011;14201;43.188;24.160;2023-04-06T15:48:51;9.52;;;6.57;;
26530;SDS011;14201;43.188;24.160;2023-04-06T15:51:17;9.35;;;6.88;;
26530;SDS011;14201;43.188;24.160;2023-04-06T15:53:43;7.55;;;6.18;;
26530;SDS011;14201;43.188;24.160;2023-04-06T15:56:09;9.00;;;6.70;;
26530;SDS011;14201;43.188;24.160;2023-04-06T15:58:35;8.73;;;6.95;;
26530;SDS011;14201;43.188;24.160;2023-04-06T16:01:09;9.30;;;6.72;;
26530;SDS011;14201;43.188;24.160;2023-04-06T16:03:36;9.68;;;6.32;;
26530;SDS011;14201;43.188;24.160;2023-04-06T16:06:01;8.60;;;6.32;;
26530;SDS011;14201;43.188;24.160;2023-04-06T16:08:27;8.05;;;6.53;;
26530;SDS011;14201;43.188;24.160;2023-04-06T16:10:52;10.30;;;6.90;;
26530;SDS011;14201;43.188;24.160;2023-04-06T16:13:18;11.45;;;6.90;;
26530;SDS011;14201;43.188;24.160;2023-04-06T16:15:48;8.25;;;6.78;;
26530;SDS011;14201;43.188;24.160;2023-04-06T16:18:15;11.35;;;6.85;;
26530;SDS011;14201;43.188;24.160;2023-04-06T16:20:40;9.63;;;7.03;;
26530;SDS011;14201;43.188;24.160;2023-04-06T16:23:06;10.80;;;7.25;;
26530;SDS011;14201;43.188;24.160;2023-04-06T16:25:31;7.82;;;6.43;;
26530;SDS011;14201;43.188;24.160;2023-04-06T16:27:57;7.72;;;6.25;;
26530;SDS011;14201;43.188;24.160;2023-04-06T16:30:23;9.93;;;6.88;;
26530;SDS011;14201;43.188;24.160;2023-04-06T16:32:50;7.38;;;6.32;;
26530;SDS011;14201;43.188;24.160;2023-04-06T16:35:17;8.60;;;6.80;;
26530;SDS011;14201;43.188;24.160;2023-04-06T16:37:43;10.52;;;7.63;;
26530;SDS011;14201;43.188;24.160;2023-04-06T16:40:10;8.10;;;6.63;;
26530;SDS011;14201;43.188;24.160;2023-04-06T16:42:36;13.23;;;7.60;;
26530;SDS011;14201;43.188;24.160;2023-04-06T16:45:02;10.32;;;7.40;;
26530;SDS011;14201;43.188;24.160;2023-04-06T16:47:28;9.55;;;7.05;;
26530;SDS011;14201;43.188;24.160;2023-04-06T16:49:53;9.52;;;6.82;;
26530;SDS011;14201;43.188;24.160;2023-04-06T16:52:19;9.23;;;7.45;;
26530;SDS011;14201;43.188;24.160;2023-04-06T16:54:45;10.65;;;7.70;;
26530;SDS011;14201;43.188;24.160;2023-04-06T16:57:10;9.77;;;7.22;;
26530;SDS011;14201;43.188;24.160;2023-04-06T16:59:36;10.65;;;7.13;;
26530;SDS011;14201;43.188;24.160;2023-04-06T17:02:01;11.40;;;7.78;;
26530;SDS011;14201;43.188;24.160;2023-04-06T17:04:28;9.02;;;7.60;;
26530;SDS011;14201;43.188;24.160;2023-04-06T17:06:53;10.43;;;7.38;;
26530;SDS011;14201;43.188;24.160;2023-04-06T17:09:19;11.88;;;8.05;;
26530;SDS011;14201;43.188;24.160;2023-04-06T17:11:45;11.13;;;7.60;;
26530;SDS011;14201;43.188;24.160;2023-04-06T17:14:11;10.02;;;7.70;;
26530;SDS011;14201;43.188;24.160;2023-04-06T17:16:36;9.30;;;7.40;;
26530;SDS011;14201;43.188;24.160;2023-04-06T17:19:02;12.82;;;7.97;;
26530;SDS011;14201;43.188;24.160;2023-04-06T17:21:27;8.80;;;7.03;;
26530;SDS011;14201;43.188;24.160;2023-04-06T17:23:53;9.73;;;7.75;;